Du har inga inställningar för hoppväder.nu

Hoppväder.nu

Senast uppdaterat 02:15

UTC-tid

2018-01-17 kl. 01:15


Sol och måne

Solen går upp 8:36 och går ner 15:25 (beräknade cirkatider)
Nästa fullmåne blir om 14 dagar (2018-01-31)

METAR

ESSA (Arlanda, Stockholm)
(25 minuter sedan)
ESSA 170050Z 13014KT 3300 -SN BKN008 OVC010 M02/M03 Q0988 RWY 01L WET SNOW 11-25 PCT 2 MM FCT 0.67 RWY 01R WET SNOW 11-25 PCT 2 MM FCT 0.52 RWY 08 WET SNOW 11-25 PCT 2 MM FCT 0.55 TEMPO 5000=



ESSD (Borlänge)
(25 minuter sedan)
ESSD 170050Z AUTO 12010KT 4500 BR OVC005/// M01/M01 Q0985=



EFMA (Mariehamn)
(25 minuter sedan)
EFMA 170050Z AUTO 13015KT 080V180 9999 OVC022 M02/M07 Q0992=



ESOW (Västerås)
(25 minuter sedan)
ESOW 170050Z AUTO 12015KT 5000 SG FEW006/// SCT008/// BKN010/// 00/M01 Q0986=






TAF

ESSA (Arlanda, Stockholm)
(105 minuter sedan)
ESSA 162330Z 1700/1724 13013KT 2000 SN VV008 TEMPO 1700/1715 5000 -SN BKN015 BECMG 1715/1717 9999 NSW BKN015 PROB40 1717/1724 BKN012=



ESSD (Borlänge)
(315 minuter sedan)
ESSD 162000Z NIL=



EFMA (Mariehamn)
(106 minuter sedan)
EFMA 162329Z 1700/1709 13016KT 9999 BKN023 TEMPO 1700/1709 13015G25KT 5000 -SN BKN013=



ESOW (Västerås)
(315 minuter sedan)
ESOW 162000Z NIL=





Kodnycklar till TAF och METAR






LHP

(Gryttjom är område F2c i Norra delen)

Prognos är inte uppdaterad




Spotting

Hur fungerar spotthjälpen och Vindkartan?

Markvind är ca 0 m/s.



Vindkartan

Senast uppdaterad 02:15



All data kommer från LFV.se